Have a Safe July 4th! 

Flight Track Log - Related Links

Times and Time Zones

All times are in EST time to prevent confusion due to time zone crossing. See the N373LD flight status page for this flight to view local times or setup timezone preferences in your user account.

Time Position Orientation Groundspeed Altitude Reporting Facility
EST Latitude Longitude Course Direction KTS MPH feet Rate Location/Type
Sat 04:12:40 PM 46.2003 -105.9078 173° South 161 185 11,100  Level Salt Lake Center
Sat 04:13:00 PM 46.0751 -105.8268 173° South  Level Estimated
Sat 04:13:42 PM 46.1600 -105.8967 169° South 166 191 12,200  Level Salt Lake Center
Sat 04:14:00 PM 46.0163 -105.8169 173° South  Level Estimated
Sat 04:14:43 PM 46.1036 -105.8878 174° South 169 194 13,600  Level Salt Lake Center
Sat 04:15:00 PM 45.9574 -105.8071 173° South  Level Estimated
Sat 04:15:44 PM 46.0547 -105.8794 173° South 173 199 14,800  Level Salt Lake Center
Sat 04:16:00 PM 45.8986 -105.7973 173° South  Level Estimated
Sat 04:16:45 PM 46.0058 -105.8714 173° South 176 203 16,100  Level Salt Lake Center
Sat 04:17:00 PM 45.8398 -105.7875 173° South  Level Estimated
Sat 04:17:47 PM 45.9572 -105.8619 172° South 176 203 17,000  Level Salt Lake Center
Sat 04:18:00 PM 45.7810 -105.7778 173° South  Level Estimated
Sat 04:18:48 PM 45.9081 -105.8544 174° South 177 204 18,700  Level Salt Lake Center
Sat 04:19:49 PM 45.8583 -105.8461 173° South 179 206 19,700 927 Climbing Salt Lake Center
Sat 04:20:51 PM 45.8097 -105.8389 174° South 177 204 20,600 1,024 Climbing Salt Lake Center
Sat 04:21:52 PM 45.7603 -105.8286 172° South 179 206 21,800 1,033 Climbing Salt Lake Center
Sat 04:22:53 PM 45.7119 -105.8242 176° South 177 204 22,700 984 Climbing Salt Lake Center
Sat 04:23:54 PM 45.6644 -105.8156 173° South 174 200 23,800 1,073 Climbing Salt Lake Center
Sat 04:24:56 PM 45.6083 -105.8061 173° South 171 197 24,900 976 Climbing Salt Lake Center
Sat 04:25:57 PM 45.5603 -105.7986 174° South 173 199 25,800 836 Climbing Salt Lake Center
Sat 04:26:58 PM 45.5097 -105.7897 173° South 178 205 26,600 590 Climbing Salt Lake Center
Sat 04:27:59 PM 45.4597 -105.7847 176° South 182 209 27,000 195 Climbing Salt Lake Center
Sat 04:29:01 PM 45.4022 -105.7758 174° South 204 235 27,000  Level Salt Lake Center
Sat 04:30:02 PM 45.3422 -105.7669 174° South 216 249 27,000  Level Salt Lake Center
Sat 04:31:03 PM 45.2803 -105.7550 172° South 222 255 27,000  Level Salt Lake Center
Sat 04:32:04 PM 45.2161 -105.7433 173° South 229 264 27,000  Level Salt Lake Center
Sat 04:33:06 PM 45.1531 -105.7328 173° South 229 264 27,000  Level Salt Lake Center
Sat 04:34:07 PM 45.0894 -105.7219 173° South 231 266 27,000  Level Salt Lake Center
Sat 04:35:08 PM 45.0167 -105.7103 174° South 221 254 27,000  Level Salt Lake Center
Sat 04:36:10 PM 44.9558 -105.7022 175° South 221 254 27,000  Level Salt Lake Center
Sat 04:37:11 PM 44.8961 -105.6911 172° South 218 251 27,000  Level Salt Lake Center
Sat 04:38:12 PM 44.8364 -105.6814 173° South 217 250 27,000  Level Salt Lake Center
Sat 04:39:14 PM 44.7742 -105.6719 174° South 224 258 27,000  Level Salt Lake Center
Sat 04:40:15 PM 44.7092 -105.6606 173° South 222 255 27,000  Level Salt Lake Center
Sat 04:41:16 PM 44.6486 -105.6500 173° South 227 261 27,000  Level Salt Lake Center
Sat 04:42:18 PM 44.5781 -105.6394 174° South 229 264 27,000  Level Salt Lake Center
Sat 04:43:19 PM 44.5189 -105.6292 173° South 225 259 27,000  Level Salt Lake Center
Sat 04:43:51 PM 44.4856 -105.6244 174° South 226 260 27,000  Level Denver Center
Sat 04:44:53 PM 44.4183 -105.6139 174° South 226 260 27,000  Level Denver Center
Sat 04:45:54 PM 44.3586 -105.6050 174° South 226 260 27,000  Level Denver Center
Sat 04:46:56 PM 44.2892 -105.5947 174° South 226 260 27,000  Level Denver Center
Sat 04:47:57 PM 44.2289 -105.5850 173° South 226 260 27,000  Level Denver Center
Sat 04:48:58 PM 44.1697 -105.5753 173° South 225 259 27,000  Level Denver Center
Sat 04:50:00 PM 44.0994 -105.5650 174° South 227 261 27,000  Level Denver Center
Sat 04:51:01 PM 44.0397 -105.5542 173° South 227 261 27,000  Level Denver Center
Sat 04:52:03 PM 43.9694 -105.5450 175° South 226 260 27,000  Level Denver Center
Sat 04:53:16 PM 43.9119 -105.5336 172° South 223 257 27,000  Level Denver Center
Sat 04:54:18 PM 43.8319 -105.5219 174° South 225 259 27,000  Level Denver Center
Sat 04:55:19 PM 43.7722 -105.5111 173° South 227 261 27,000  Level Denver Center
Sat 04:56:21 PM 43.7017 -105.5014 174° South 228 262 27,000  Level Denver Center
Sat 04:57:22 PM 43.6411 -105.4911 173° South 228 262 27,000  Level Denver Center
Sat 04:58:35 PM 43.5725 -105.4806 174° South 225 259 27,000  Level Denver Center
Sat 04:59:38 PM 43.5028 -105.4717 175° South 224 258 27,000  Level Denver Center
Sat 05:00:39 PM 43.4317 -105.4614 174° South 229 264 27,000  Level Denver Center
Sat 05:01:41 PM 43.3731 -105.4531 174° South 227 261 27,000  Level Denver Center
Sat 05:02:42 PM 43.3061 -105.4417 173° South 218 251 27,000  Level Denver Center
Sat 05:03:43 PM 43.2489 -105.4339 174° South 217 250 27,000  Level Denver Center
Sat 05:04:45 PM 43.1928 -105.4247 173° South 214 246 27,000  Level Denver Center
Sat 05:05:58 PM 43.1281 -105.4139 173° South 211 243 27,000  Level Denver Center
Sat 05:07:00 PM 43.0550 -105.4033 174° South 209 241 27,000  Level Denver Center
Sat 05:08:01 PM 42.9986 -105.3958 174° South 210 242 27,000  Level Denver Center
Sat 05:09:03 PM 42.9394 -105.3867 174° South 216 249 27,000  Level Denver Center
Sat 05:10:04 PM 42.8706 -105.3761 174° South 222 255 27,000  Level Denver Center
Sat 05:11:05 PM 42.8114 -105.3675 174° South 224 258 27,000  Level Denver Center
Sat 05:12:07 PM 42.7433 -105.3575 174° South 221 254 27,000  Level Denver Center
Sat 05:13:08 PM 42.6839 -105.3483 174° South 225 259 27,000  Level Denver Center
Sat 05:14:09 PM 42.6167 -105.3378 173° South 219 252 27,000  Level Denver Center
Sat 05:15:23 PM 42.5600 -105.3283 173° South 216 249 27,000  Level Denver Center
Sat 05:16:36 PM 42.4828 -105.3186 175° South 218 251 27,000  Level Denver Center
Sat 05:17:38 PM 42.4139 -105.3078 173° South 224 258 27,000  Level Denver Center
Sat 05:18:40 PM 42.3433 -105.2975 174° South 229 264 27,000  Level Denver Center
Sat 05:19:41 PM 42.2800 -105.2886 174° South 237 273 27,000  Level Denver Center
Sat 05:20:42 PM 42.2064 -105.2775 174° South 239 275 27,000  Level Denver Center
Sat 05:21:44 PM 42.1425 -105.2675 173° South 243 280 27,000  Level Denver Center
Sat 05:22:45 PM 42.0694 -105.2572 174° South 238 274 27,000  Level Denver Center
Sat 05:23:47 PM 42.0067 -105.2489 174° South 237 273 27,000  Level Denver Center
Sat 05:24:48 PM 41.9358 -105.2378 173° South 232 267 27,000  Level Denver Center
Sat 05:25:50 PM 41.8769 -105.2292 174° South 224 258 27,000  Level Denver Center
Sat 05:26:51 PM 41.8178 -105.2203 174° South 224 258 27,000  Level Denver Center
Sat 05:27:53 PM 41.7464 -105.2103 174° South 230 265 27,000 -244 Level Denver Center
Sat 05:28:54 PM 41.6861 -105.2014 174° South 230 265 26,500 -488 Descending Denver Center
Sat 05:29:56 PM 41.6103 -105.1900 174° South 243 280 26,000 -439 Descending Denver Center
Sat 05:30:57 PM 41.5442 -105.1806 174° South 249 287 25,600 -488 Descending Denver Center
Sat 05:31:59 PM 41.4708 -105.1694 174° South 241 277 25,000 -293 Descending Denver Center
Sat 05:33:00 PM 41.4069 -105.1617 175° South 241 277 25,000 -195 Level Denver Center
Sat 05:34:02 PM 41.3422 -105.1519 174° South 244 281 24,600 -871 Descending Denver Center
Sat 05:35:04 PM 41.2650 -105.1406 174° South 249 287 23,200 -1,317 Descending Denver Center
Sat 05:36:05 PM 41.2033 -105.1325 174° South 240 276 21,900 -1,317 Descending Denver Center
Sat 05:37:07 PM 41.1311 -105.1231 174° South 234 269 20,500 -1,366 Descending Denver Center
Sat 05:38:08 PM 41.0697 -105.1128 173° South 234 269 19,100 -1,556 Descending Denver Center
Sat 05:39:22 PM 41.0044 -105.1044 174° South 226 260 17,000 -1,324 Descending Denver Center
Sat 05:40:24 PM 40.9347 -105.0933 173° South 212 244 16,100 -439 Descending Denver Center
Sat 05:41:25 PM 40.8772 -105.0858 174° South 209 241 16,100 -146 Level Denver Center
Sat 05:42:27 PM 40.8183 -105.0761 173° South 211 243 15,800 -488 Descending Denver Center
Sat 05:43:28 PM 40.7586 -105.0683 174° South 215 247 15,100 -732 Descending Denver Center
Sat 05:44:30 PM 40.6978 -105.0767 186° South 182 209 14,300 -732 Descending Denver Center
Sat 05:45:31 PM 40.6508 -105.0786 182° South 171 197 13,600 -683 Descending Denver Center
Sat 05:46:33 PM 40.6036 -105.0825 184° South 170 196 12,900 -683 Descending Denver Center
Sat 05:47:34 PM 40.5597 -105.0319 139° Southeast 200 230 12,200 -390 Descending Denver Center
Sat 05:48:36 PM 40.5286 -104.9817 129° Southeast 180 207 12,100 -48 Descending Denver Center
Sat 05:49:38 PM 40.4911 -104.9244 131° Southeast 203 234 12,100 -49 Level Denver Center
Sat 05:50:39 PM 40.4333 -104.9403 192° South 202 232 12,000 -341 Descending Denver Center
Sat 05:51:41 PM 40.3881 -104.9592 198° South 178 205 11,400 -585 Descending Denver Center
Sat 05:52:42 PM 40.3578 -104.9689 194° South 121 139 10,800 -683 Descending Denver Center
Sat 05:53:44 PM 40.3122 -104.9875 197° South 163 188 10,000 -732 Descending Denver Center
Sat 05:54:45 PM 40.2731 -104.9925 186° South 168 193 9,300 -443 Descending Denver Center
Sat 05:55:46 PM 40.2242 -104.9931 180° South 140 161 9,100 -195 Descending Denver Center
Sat 05:56:48 PM 40.1842 -104.9933 180° South 141 162 8,900  Descending Denver Center
Sat 05:58:01 PM 40.1383 -104.9983 185° South 151 174 9,100 88 Climbing Denver Center
Sat 05:59:04 PM 40.0811 -105.0111 190° South 167 192 9,100 -48 Level Denver Center
Sat 06:00:05 PM 40.0317 -105.0228 190° South 179 206 9,000 49 Descending Denver Center
Sat 06:01:06 PM 39.9875 -105.0278 185° South 164 189 9,200  Climbing Denver Center
Sat 06:02:08 PM 39.9347 -105.0375 188° South 177 204 9,000 -98 Descending Denver Center
Sat 06:03:09 PM 39.8869 -105.0336 176° South 171 197 9,000 -178 Level Denver Center
Sat 06:04:23 PM 39.8400 -105.0081 157° South 181 208 8,600 -400 Descending Denver Center
Sat 06:05:24 PM 39.7825 -104.9700 153° Southeast 188 216 8,100 -537 Descending Denver Center
Sat 06:06:26 PM 39.7333 -104.9381 153° Southeast 185 213 7,500 -488 Descending Denver Center
Sat 06:07:27 PM 39.6878 -104.9039 150° Southeast 188 216 7,100 -341 Descending Denver Center
Sat 06:08:29 PM 39.6475 -104.8739 150° Southeast 171 197 6,800 -439 Descending Denver Center
Sat 06:09:30 PM 39.6064 -104.8522 158° South 150 173 6,200 -492 Descending Denver Center
Sat 06:10:31 PM 39.5758 -104.8506 178° South 117 135 5,800 -393 Descending Denver Center
Sat 06:12:00 PM 39.5701 -104.8493 90° East  Level Estimated
Sat 06:19:00 PM 39.5701 -104.8493 90° East  Level Estimated
Sat 06:20:00 PM 39.5701 -104.8493 90° East  Level Estimated

Login

Don't have an account? Register now (free) for customized features, flight alerts, and more!